createdAt,value
2022-09-06T00:00:04.853Z,74.96
2022-09-06T00:00:51.755Z,75.23
2022-09-06T00:01:25.877Z,75.26
2022-09-06T00:02:12.747Z,75.53
2022-09-06T00:02:47.856Z,75.65
2022-09-06T00:03:27.793Z,75.52
2022-09-06T00:04:10.714Z,75.56
2022-09-06T00:04:55.743Z,75.64
2022-09-06T00:05:37.884Z,76.04
2022-09-06T00:06:21.724Z,76.05
2022-09-06T00:07:01.781Z,76.08
2022-09-06T00:07:42.716Z,76.15
2022-09-06T00:08:22.842Z,76.18
2022-09-06T00:09:02.751Z,76.26
2022-09-06T00:09:42.840Z,76.40
2022-09-06T00:10:23.773Z,76.22
2022-09-06T00:11:04.885Z,76.38
2022-09-06T00:11:45.735Z,76.42
2022-09-06T00:12:25.836Z,76.67
2022-09-06T00:13:14.722Z,76.53
2022-09-06T00:13:55.801Z,76.78
2022-09-06T00:14:35.770Z,76.30
2022-09-06T00:15:16.769Z,76.48
2022-09-06T00:15:57.802Z,76.52
2022-09-06T00:16:40.654Z,76.86
2022-09-06T00:17:20.733Z,76.58
2022-09-06T00:18:00.843Z,77.25
2022-09-06T00:18:40.744Z,76.78
2022-09-06T00:19:20.849Z,76.83
2022-09-06T00:20:01.778Z,76.67
2022-09-06T00:20:44.773Z,76.67
2022-09-06T00:21:27.722Z,76.67
2022-09-06T00:22:07.830Z,76.86
2022-09-06T00:22:48.733Z,77.10
2022-09-06T00:23:28.796Z,77.18
2022-09-06T00:24:10.709Z,76.57
2022-09-06T00:24:50.774Z,77.25
2022-09-06T00:25:31.758Z,77.00
2022-09-06T00:26:25.726Z,76.43
2022-09-06T00:27:21.719Z,77.03
2022-09-06T00:28:19.693Z,77.12
2022-09-06T00:29:13.750Z,77.12
2022-09-06T00:30:07.718Z,77.22
2022-09-06T00:30:54.763Z,77.11
2022-09-06T00:31:32.688Z,78.03
2022-09-06T00:32:19.712Z,77.41
2022-09-06T00:32:53.769Z,77.30
2022-09-06T00:33:40.724Z,77.31
2022-09-06T00:34:14.768Z,77.20
2022-09-06T00:35:01.711Z,77.26
2022-09-06T00:35:35.786Z,77.18
2022-09-06T00:36:17.805Z,77.28
2022-09-06T00:36:57.800Z,77.65
2022-09-06T00:37:38.725Z,77.60
2022-09-06T00:38:18.754Z,77.60
2022-09-06T00:38:58.693Z,78.12
2022-09-06T00:39:38.820Z,77.51
2022-09-06T00:40:19.717Z,77.80
2022-09-06T00:40:59.810Z,77.74
2022-09-06T00:41:39.732Z,77.55
2022-09-06T00:42:20.799Z,77.95
2022-09-06T00:43:02.699Z,77.82
2022-09-06T00:43:42.851Z,77.97
2022-09-06T00:44:22.701Z,77.81
2022-09-06T00:45:02.848Z,77.95
2022-09-06T00:45:42.684Z,77.81
2022-09-06T00:46:29.778Z,78.30
2022-09-06T00:47:10.739Z,78.47
2022-09-06T00:47:50.741Z,78.32
2022-09-06T00:48:31.730Z,78.45
2022-09-06T00:49:24.314Z,78.47
2022-09-06T00:50:06.705Z,78.69
2022-09-06T00:50:46.879Z,78.95
2022-09-06T00:51:28.720Z,78.75
2022-09-06T00:52:18.720Z,78.52
2022-09-06T00:53:12.694Z,78.77
2022-09-06T00:54:06.678Z,78.08
2022-09-06T00:55:01.736Z,78.13
2022-09-06T00:55:56.709Z,78.97
2022-09-06T00:56:55.717Z,79.04
2022-09-06T00:57:42.725Z,79.05
2022-09-06T00:58:16.766Z,78.89
2022-09-06T00:59:03.685Z,79.02
2022-09-06T00:59:39.754Z,78.82
2022-09-06T01:00:27.683Z,79.33
2022-09-06T01:01:01.884Z,79.11
2022-09-06T01:01:49.774Z,79.00
2022-09-06T01:02:23.955Z,79.26
2022-09-06T01:03:04.708Z,79.53
2022-09-06T01:03:38.633Z,78.82
2022-09-06T01:04:26.705Z,79.35
2022-09-06T01:05:00.564Z,79.38
2022-09-06T01:06:16.704Z,79.53
2022-09-06T01:07:17.920Z,79.07
2022-09-06T01:08:39.739Z,79.15
2022-09-06T01:09:58.948Z,79.37
2022-09-06T01:11:09.681Z,79.27
2022-09-06T01:12:20.361Z,79.20
2022-09-06T01:14:02.738Z,79.08
2022-09-06T01:15:14.735Z,79.50
2022-09-06T01:16:37.716Z,79.56
2022-09-06T01:17:35.107Z,79.62
2022-09-06T01:18:45.688Z,80.13
2022-09-06T01:19:58.747Z,80.11
2022-09-06T01:21:14.809Z,80.23
2022-09-06T01:22:28.678Z,80.83
2022-09-06T01:23:22.720Z,80.55
2022-09-06T01:24:20.691Z,81.95
2022-09-06T01:25:26.713Z,82.15
2022-09-06T01:26:22.255Z,81.89
2022-09-06T01:27:24.653Z,81.92
2022-09-06T01:28:31.152Z,81.91
2022-09-06T01:29:46.698Z,81.94
2022-09-06T01:30:21.190Z,81.92
2022-09-06T01:31:42.714Z,82.35
2022-09-06T01:32:57.781Z,82.36
2022-09-06T01:34:03.682Z,81.96
2022-09-06T01:34:58.833Z,81.87
2022-09-06T01:35:54.678Z,81.75
2022-09-06T01:37:10.362Z,83.03
2022-09-06T01:38:04.670Z,82.99
2022-09-06T01:38:58.659Z,82.81
2022-09-06T01:39:54.689Z,82.67
2022-09-06T01:40:48.673Z,82.59
2022-09-06T01:41:43.654Z,82.38
2022-09-06T01:42:33.696Z,82.46
2022-09-06T01:43:10.802Z,82.65
2022-09-06T01:43:58.649Z,82.63
2022-09-06T01:44:34.710Z,82.46
2022-09-06T01:45:24.831Z,82.35
2022-09-06T01:46:33.750Z,82.75
2022-09-06T01:47:41.674Z,83.12
2022-09-06T01:48:31.788Z,82.63
2022-09-06T01:49:39.640Z,83.21
2022-09-06T01:50:22.861Z,83.22
2022-09-06T01:51:29.629Z,82.99
2022-09-06T01:52:15.034Z,82.92
2022-09-06T01:53:50.686Z,83.32
2022-09-06T01:54:35.754Z,83.00
2022-09-06T01:55:29.693Z,83.33
2022-09-06T01:56:53.690Z,82.90
2022-09-06T01:58:01.701Z,83.05
2022-09-06T01:59:10.674Z,83.03
2022-09-06T02:00:19.649Z,83.06
2022-09-06T02:01:41.706Z,83.34
2022-09-06T02:02:55.693Z,84.21
2022-09-06T02:04:07.618Z,83.84
2022-09-06T02:05:03.643Z,83.92
2022-09-06T02:05:52.669Z,84.09
2022-09-06T02:06:39.645Z,84.64
2022-09-06T02:07:33.758Z,83.97
2022-09-06T02:08:19.640Z,83.89
2022-09-06T02:09:22.730Z,84.45
2022-09-06T02:10:32.641Z,84.24
2022-09-06T02:11:15.669Z,84.51
2022-09-06T02:12:03.610Z,85.46
2022-09-06T02:12:47.733Z,85.34
2022-09-06T02:13:29.625Z,85.33
2022-09-06T02:14:15.678Z,84.71
2022-09-06T02:15:11.617Z,85.02
2022-09-06T02:15:58.666Z,84.59
2022-09-06T02:16:34.693Z,85.35
2022-09-06T02:17:25.612Z,85.31
2022-09-06T02:18:10.698Z,84.76
2022-09-06T02:19:19.597Z,84.97
2022-09-06T02:20:05.867Z,85.12
2022-09-06T02:20:58.657Z,84.73
2022-09-06T02:21:40.089Z,85.29
2022-09-06T02:22:29.615Z,85.05
2022-09-06T02:23:05.661Z,84.78
2022-09-06T02:23:53.601Z,85.05
2022-09-06T02:24:38.755Z,84.85
2022-09-06T02:25:34.629Z,84.74
2022-09-06T02:26:51.649Z,85.33
2022-09-06T02:27:46.600Z,85.44
2022-09-06T02:28:40.606Z,85.30
2022-09-06T02:29:34.595Z,85.79
2022-09-06T02:30:28.650Z,85.93
2022-09-06T02:31:39.606Z,86.00
2022-09-06T02:32:29.614Z,85.86
2022-09-06T02:33:16.657Z,86.13
2022-09-06T02:33:57.605Z,86.76
2022-09-06T02:34:37.666Z,86.32
2022-09-06T02:35:21.589Z,87.15
2022-09-06T02:36:02.661Z,86.16
2022-09-06T02:36:43.590Z,86.59
2022-09-06T02:37:26.088Z,87.00
2022-09-06T02:38:06.690Z,86.44
2022-09-06T02:38:47.694Z,85.99
2022-09-06T02:39:28.627Z,86.14
2022-09-06T02:40:08.968Z,86.59
2022-09-06T02:40:49.619Z,86.71
2022-09-06T02:41:31.031Z,87.19
2022-09-06T02:42:11.603Z,87.18
2022-09-06T02:42:51.741Z,87.74
2022-09-06T02:43:32.613Z,87.45
2022-09-06T02:44:12.712Z,87.88
2022-09-06T02:44:53.577Z,87.56
2022-09-06T02:45:47.634Z,87.46
2022-09-06T02:46:41.582Z,87.12
2022-09-06T02:47:35.576Z,87.12
2022-09-06T02:48:29.596Z,87.64
2022-09-06T02:49:10.604Z,87.17
2022-09-06T02:49:50.665Z,87.17
2022-09-06T02:50:30.575Z,87.91
2022-09-06T02:51:12.680Z,87.74
2022-09-06T02:51:53.611Z,87.70
2022-09-06T02:52:33.664Z,87.87
2022-09-06T02:53:17.585Z,87.84
2022-09-06T02:53:57.635Z,87.46
2022-09-06T02:54:38.619Z,87.36
2022-09-06T02:55:18.670Z,87.84
2022-09-06T02:55:58.588Z,88.23
2022-09-06T02:56:39.887Z,87.75
2022-09-06T02:57:19.568Z,88.16
2022-09-06T02:57:59.648Z,88.10
2022-09-06T02:58:39.577Z,88.30
2022-09-06T02:59:19.642Z,87.71
2022-09-06T03:00:00.611Z,87.99
2022-09-06T03:00:41.633Z,87.92
2022-09-06T03:01:21.631Z,87.79
2022-09-06T03:02:01.676Z,87.97
2022-09-06T03:02:41.604Z,88.87
2022-09-06T03:03:21.613Z,88.23
2022-09-06T03:04:02.567Z,88.37
2022-09-06T03:04:42.627Z,88.61
2022-09-06T03:05:23.604Z,88.94
2022-09-06T03:06:03.636Z,88.52
2022-09-06T03:06:43.569Z,89.82
2022-09-06T03:07:23.705Z,90.11
2022-09-06T03:08:04.561Z,89.86
2022-09-06T03:08:44.621Z,89.60
2022-09-06T03:09:24.551Z,89.22
2022-09-06T03:10:05.491Z,88.83
2022-09-06T03:10:46.615Z,89.13
2022-09-06T03:11:26.647Z,88.75
2022-09-06T03:12:06.576Z,88.75
2022-09-06T03:12:48.628Z,88.51
2022-09-06T03:13:30.564Z,89.27
2022-09-06T03:14:10.729Z,88.98
2022-09-06T03:14:54.727Z,88.83
2022-09-06T03:15:35.618Z,89.77
2022-09-06T03:16:16.669Z,89.73
2022-09-06T03:16:56.913Z,89.00
2022-09-06T03:17:37.554Z,89.63
2022-09-06T03:18:18.644Z,89.10
2022-09-06T03:18:58.568Z,88.67
2022-09-06T03:19:38.620Z,88.79
2022-09-06T03:20:19.576Z,89.56
2022-09-06T03:21:00.640Z,88.91
2022-09-06T03:21:41.589Z,88.85
2022-09-06T03:22:21.669Z,88.99
2022-09-06T03:23:02.544Z,89.71
2022-09-06T03:23:42.609Z,89.33
2022-09-06T03:24:22.544Z,89.61
2022-09-06T03:25:02.621Z,89.43
2022-09-06T03:25:43.553Z,88.97
2022-09-06T03:26:23.689Z,88.92
2022-09-06T03:27:04.587Z,89.34
2022-09-06T03:27:44.608Z,89.58
2022-09-06T03:28:25.599Z,89.23
2022-09-06T03:29:06.045Z,88.79
2022-09-06T03:29:45.547Z,89.50
2022-09-06T03:30:25.608Z,89.55
2022-09-06T03:31:06.584Z,89.49
2022-09-06T03:31:46.635Z,90.02
2022-09-06T03:32:27.568Z,89.73
2022-09-06T03:33:07.628Z,90.59
2022-09-06T03:33:47.561Z,90.10
2022-09-06T03:34:27.640Z,90.13
2022-09-06T03:35:08.537Z,90.02
2022-09-06T03:36:01.613Z,89.64
2022-09-06T03:36:41.543Z,90.07
2022-09-06T03:37:21.601Z,90.56
2022-09-06T03:38:02.581Z,90.32
2022-09-06T03:38:42.609Z,90.46
2022-09-06T03:39:22.552Z,89.80
2022-09-06T03:40:02.747Z,89.99
2022-09-06T03:40:42.568Z,90.78
2022-09-06T03:41:22.634Z,90.18
2022-09-06T03:42:02.520Z,89.91
2022-09-06T03:42:42.586Z,90.71
2022-09-06T03:43:24.629Z,89.95
2022-09-06T03:44:04.575Z,89.91
2022-09-06T03:44:44.540Z,89.96
2022-09-06T03:45:24.620Z,91.24
2022-09-06T03:46:05.588Z,90.83
2022-09-06T03:46:46.285Z,90.37
2022-09-06T03:47:27.529Z,90.21
2022-09-06T03:48:07.642Z,90.12
2022-09-06T03:48:48.574Z,90.74
2022-09-06T03:49:28.619Z,90.46
2022-09-06T03:50:08.525Z,90.74
2022-09-06T03:50:56.625Z,91.35
2022-09-06T03:51:36.528Z,91.02
2022-09-06T03:52:16.609Z,92.17
2022-09-06T03:52:57.537Z,91.54
2022-09-06T03:53:37.608Z,91.28
2022-09-06T03:54:18.552Z,91.57
2022-09-06T03:54:58.590Z,91.40
2022-09-06T03:55:38.515Z,92.20
2022-09-06T03:56:18.584Z,91.64
2022-09-06T03:56:58.526Z,91.46
2022-09-06T03:57:38.640Z,91.41
2022-09-06T03:58:19.527Z,91.80
2022-09-06T03:58:59.737Z,91.87
2022-09-06T03:59:40.565Z,92.01
2022-09-06T04:00:21.570Z,91.56
2022-09-06T04:01:13.574Z,92.11
2022-09-06T04:01:53.591Z,92.29
2022-09-06T04:02:33.584Z,92.15
2022-09-06T04:03:13.582Z,92.38
2022-09-06T04:03:54.518Z,93.04
2022-09-06T04:04:34.612Z,93.13
2022-09-06T04:05:15.580Z,92.95
2022-09-06T04:05:55.628Z,92.52
2022-09-06T04:06:35.529Z,93.32
2022-09-06T04:07:15.570Z,92.72
2022-09-06T04:07:55.525Z,93.02
2022-09-06T04:08:35.605Z,93.45
2022-09-06T04:09:15.496Z,93.34
2022-09-06T04:09:55.587Z,93.24
2022-09-06T04:10:36.542Z,93.27
2022-09-06T04:11:17.490Z,93.02
2022-09-06T04:11:58.517Z,93.66
2022-09-06T04:12:38.603Z,93.22
2022-09-06T04:13:18.509Z,92.65
2022-09-06T04:13:58.569Z,93.49
2022-09-06T04:14:44.501Z,93.99
2022-09-06T04:15:24.565Z,93.65
2022-09-06T04:16:05.540Z,93.83
2022-09-06T04:16:46.668Z,93.22
2022-09-06T04:17:26.518Z,94.22
2022-09-06T04:18:09.210Z,93.54
2022-09-06T04:18:49.497Z,94.31
2022-09-06T04:19:29.620Z,93.51
2022-09-06T04:20:11.529Z,93.17
2022-09-06T04:20:58.377Z,93.68
2022-09-06T04:21:39.538Z,93.32
2022-09-06T04:22:19.565Z,93.42
2022-09-06T04:23:00.522Z,93.77
2022-09-06T04:23:40.597Z,93.98
2022-09-06T04:24:20.518Z,94.22
2022-09-06T04:25:01.406Z,93.91
2022-09-06T04:25:41.488Z,94.15
2022-09-06T04:26:21.601Z,94.79
2022-09-06T04:27:02.537Z,94.27
2022-09-06T04:27:42.565Z,94.71
2022-09-06T04:28:27.456Z,95.00
2022-09-06T04:29:09.533Z,95.13
2022-09-06T04:29:50.525Z,95.00
2022-09-06T04:30:30.636Z,95.39
2022-09-06T04:31:11.501Z,95.25
2022-09-06T04:31:51.655Z,95.45
2022-09-06T04:32:32.553Z,95.11
2022-09-06T04:33:12.557Z,95.15
2022-09-06T04:33:52.480Z,95.21
2022-09-06T04:34:33.253Z,95.45
2022-09-06T04:35:14.478Z,94.95
2022-09-06T04:36:00.569Z,95.23
2022-09-06T04:36:40.501Z,95.24
2022-09-06T04:37:20.562Z,94.54
2022-09-06T04:38:01.542Z,94.75
2022-09-06T04:38:46.665Z,95.24
2022-09-06T04:39:26.538Z,95.36
2022-09-06T04:40:06.611Z,95.08
2022-09-06T04:40:46.475Z,94.81
2022-09-06T04:41:26.559Z,94.59
2022-09-06T04:42:06.475Z,94.48
2022-09-06T04:42:46.521Z,94.50
2022-09-06T04:43:27.578Z,94.68
2022-09-06T04:44:07.564Z,94.74
2022-09-06T04:44:48.481Z,95.21
2022-09-06T04:45:28.656Z,94.89
2022-09-06T04:46:34.491Z,95.21
2022-09-06T04:47:21.527Z,95.97
2022-09-06T04:48:01.468Z,95.26
2022-09-06T04:48:41.503Z,95.34
2022-09-06T04:49:15.525Z,95.49
2022-09-06T04:50:02.497Z,95.27
2022-09-06T04:50:36.563Z,95.21
2022-09-06T04:51:24.510Z,95.71
2022-09-06T04:51:58.529Z,96.10
2022-09-06T04:52:45.478Z,96.54
2022-09-06T04:53:19.632Z,96.93
2022-09-06T04:54:06.490Z,95.93
2022-09-06T04:54:40.540Z,95.69
2022-09-06T04:55:27.455Z,95.79
2022-09-06T04:56:04.544Z,95.74
2022-09-06T04:56:51.467Z,96.63
2022-09-06T04:57:25.601Z,96.49
2022-09-06T04:58:13.477Z,96.54
2022-09-06T04:58:47.564Z,96.10
2022-09-06T04:59:28.488Z,96.60
2022-09-06T05:00:08.552Z,96.49
2022-09-06T05:00:51.481Z,96.69
2022-09-06T05:01:31.625Z,96.70
2022-09-06T05:02:11.490Z,96.73
2022-09-06T05:02:51.558Z,96.75
2022-09-06T05:03:31.499Z,96.89
2022-09-06T05:04:11.582Z,96.88
2022-09-06T05:04:52.497Z,96.76
2022-09-06T05:05:46.468Z,97.11
2022-09-06T05:06:40.453Z,97.15
2022-09-06T05:07:34.454Z,97.07
2022-09-06T05:08:28.529Z,97.04
2022-09-06T05:09:23.465Z,97.03
2022-09-06T05:10:11.487Z,96.85
2022-09-06T05:10:45.517Z,97.24
2022-09-06T05:11:32.473Z,96.84
2022-09-06T05:12:06.519Z,97.67
2022-09-06T05:12:58.456Z,96.93
2022-09-06T05:13:32.522Z,96.74
2022-09-06T05:14:19.451Z,96.64
2022-09-06T05:14:53.504Z,96.97
2022-09-06T05:15:34.492Z,97.14
2022-09-06T05:16:15.586Z,96.98
2022-09-06T05:16:56.498Z,96.88
2022-09-06T05:17:37.580Z,96.88
2022-09-06T05:18:17.465Z,96.63
2022-09-06T05:18:57.509Z,96.42
2022-09-06T05:19:37.431Z,96.80
2022-09-06T05:20:18.546Z,96.90
2022-09-06T05:21:00.466Z,96.25
2022-09-06T05:21:41.049Z,95.90
2022-09-06T05:22:21.461Z,96.23
2022-09-06T05:23:01.694Z,96.30
2022-09-06T05:23:41.469Z,96.24
2022-09-06T05:24:21.509Z,96.29
2022-09-06T05:25:01.449Z,95.77
2022-09-06T05:25:41.516Z,95.87
2022-09-06T05:26:22.474Z,95.95
2022-09-06T05:27:04.403Z,95.92
2022-09-06T05:27:44.438Z,95.73
2022-09-06T05:28:25.641Z,95.81
2022-09-06T05:29:05.444Z,95.65
2022-09-06T05:29:46.564Z,95.98
2022-09-06T05:30:26.448Z,96.23
2022-09-06T05:31:36.494Z,96.29
2022-09-06T05:32:30.433Z,95.89
2022-09-06T05:33:35.422Z,96.10
2022-09-06T05:34:29.449Z,96.18
2022-09-06T05:35:23.468Z,96.12
2022-09-06T05:36:21.448Z,95.80
2022-09-06T05:37:02.501Z,95.68
2022-09-06T05:37:42.508Z,95.51
2022-09-06T05:38:22.456Z,95.66
2022-09-06T05:39:03.506Z,94.89
2022-09-06T05:39:43.459Z,95.37
2022-09-06T05:40:23.489Z,95.63
2022-09-06T05:41:03.428Z,95.40
2022-09-06T05:41:44.084Z,95.70
2022-09-06T05:42:24.473Z,95.28
2022-09-06T05:43:04.519Z,95.05
2022-09-06T05:43:44.428Z,95.12
2022-09-06T05:44:24.599Z,94.54
2022-09-06T05:45:04.422Z,95.04
2022-09-06T05:45:45.344Z,94.84
2022-09-06T05:46:26.430Z,94.91
2022-09-06T05:47:06.536Z,94.46
2022-09-06T05:47:46.507Z,95.02
2022-09-06T05:48:26.521Z,94.68
2022-09-06T05:49:11.435Z,94.39
2022-09-06T05:49:57.353Z,94.47
2022-09-06T05:50:37.410Z,94.47
2022-09-06T05:51:31.424Z,94.35
2022-09-06T05:52:26.425Z,94.27
2022-09-06T05:53:06.441Z,94.59
2022-09-06T05:53:51.502Z,94.29
2022-09-06T05:54:31.433Z,94.01
2022-09-06T05:55:12.561Z,93.81
2022-09-06T05:55:52.432Z,94.01
2022-09-06T05:56:32.521Z,93.75
2022-09-06T05:57:12.412Z,93.79
2022-09-06T05:57:52.511Z,93.97
2022-09-06T05:58:32.448Z,93.66
2022-09-06T05:59:12.468Z,93.47
2022-09-06T05:59:52.402Z,93.75
2022-09-06T06:00:32.490Z,93.41
2022-09-06T06:01:29.489Z,93.46
2022-09-06T06:02:09.632Z,93.05
2022-09-06T06:02:49.458Z,92.99
2022-09-06T06:03:29.475Z,93.02
2022-09-06T06:04:11.428Z,93.26
2022-09-06T06:04:52.094Z,93.28
2022-09-06T06:05:32.402Z,92.76
2022-09-06T06:06:12.473Z,92.39
2022-09-06T06:06:53.398Z,92.15
2022-09-06T06:07:33.508Z,92.33
2022-09-06T06:08:13.401Z,92.21
2022-09-06T06:08:53.496Z,92.14
2022-09-06T06:09:34.428Z,92.02
2022-09-06T06:10:16.070Z,91.78
2022-09-06T06:10:56.415Z,91.82
2022-09-06T06:11:37.553Z,91.70
2022-09-06T06:12:17.399Z,91.69
2022-09-06T06:12:57.657Z,91.48
2022-09-06T06:13:41.386Z,90.85
2022-09-06T06:14:21.486Z,91.48
2022-09-06T06:15:02.459Z,91.24
2022-09-06T06:15:44.477Z,91.26
2022-09-06T06:16:28.474Z,91.35
2022-09-06T06:17:09.522Z,91.07
2022-09-06T06:17:49.398Z,91.07
2022-09-06T06:18:29.613Z,90.41
2022-09-06T06:19:09.391Z,90.40
2022-09-06T06:19:49.523Z,90.28
2022-09-06T06:20:30.439Z,90.54
2022-09-06T06:21:24.518Z,90.19
2022-09-06T06:22:05.396Z,90.47
2022-09-06T06:22:45.474Z,90.24
2022-09-06T06:23:25.397Z,89.80
2022-09-06T06:24:08.457Z,89.89
2022-09-06T06:24:49.380Z,89.57
2022-09-06T06:25:29.454Z,89.75
2022-09-06T06:26:10.416Z,89.58
2022-09-06T06:26:50.447Z,89.26
2022-09-06T06:27:30.401Z,89.26
2022-09-06T06:28:10.496Z,88.97
2022-09-06T06:28:50.394Z,89.27
2022-09-06T06:29:30.460Z,88.89
2022-09-06T06:30:15.236Z,89.11
2022-09-06T06:30:58.465Z,88.83
2022-09-06T06:31:40.448Z,88.89
2022-09-06T06:32:20.446Z,88.94
2022-09-06T06:33:00.374Z,89.04
2022-09-06T06:33:41.592Z,88.84
2022-09-06T06:34:22.381Z,89.08
2022-09-06T06:35:02.519Z,88.99
2022-09-06T06:35:42.389Z,88.59
2022-09-06T06:36:22.574Z,88.44
2022-09-06T06:37:03.408Z,88.49
2022-09-06T06:37:44.614Z,88.32
2022-09-06T06:38:24.383Z,88.31
2022-09-06T06:39:05.526Z,88.32
2022-09-06T06:39:45.414Z,88.33
2022-09-06T06:40:25.463Z,87.93
2022-09-06T06:41:07.196Z,88.05
2022-09-06T06:41:49.192Z,87.85
2022-09-06T06:42:30.405Z,87.70
2022-09-06T06:43:11.443Z,87.44
2022-09-06T06:43:52.378Z,87.24
2022-09-06T06:44:32.428Z,87.10
2022-09-06T06:45:13.373Z,87.19
2022-09-06T06:45:56.458Z,86.90
2022-09-06T06:46:40.398Z,86.85
2022-09-06T06:47:20.473Z,86.49
2022-09-06T06:48:01.476Z,86.48
2022-09-06T06:48:45.501Z,86.27
2022-09-06T06:49:25.361Z,86.06
2022-09-06T06:50:05.442Z,86.02
2022-09-06T06:50:45.361Z,85.76
2022-09-06T06:51:28.214Z,85.82
2022-09-06T06:52:09.395Z,85.88
2022-09-06T06:52:49.395Z,85.96
2022-09-06T06:53:30.412Z,86.02
2022-09-06T06:54:12.508Z,85.79
2022-09-06T06:54:53.407Z,85.54
2022-09-06T06:55:33.421Z,85.52
2022-09-06T06:56:42.351Z,85.03
2022-09-06T06:57:22.425Z,84.88
2022-09-06T06:58:02.340Z,84.64
2022-09-06T06:58:49.453Z,84.58
2022-09-06T06:59:44.387Z,84.49
2022-09-06T07:00:38.381Z,84.51
2022-09-06T07:01:34.522Z,84.57
2022-09-06T07:02:28.464Z,84.45
2022-09-06T07:03:24.350Z,84.58
2022-09-06T07:04:12.391Z,84.83
2022-09-06T07:04:46.425Z,84.46
2022-09-06T07:07:38.039Z,83.59
2022-09-06T07:08:14.432Z,83.59
2022-09-06T07:09:04.340Z,84.11
2022-09-06T07:10:59.348Z,83.26
2022-09-06T07:11:53.332Z,83.21
2022-09-06T07:12:47.371Z,83.33
2022-09-06T07:13:41.364Z,82.85
2022-09-06T07:14:35.350Z,81.92
2022-09-06T07:15:16.380Z,82.61
2022-09-06T07:15:57.038Z,82.25
2022-09-06T07:16:38.394Z,82.05
2022-09-06T07:17:18.412Z,82.08
2022-09-06T07:17:59.343Z,81.75
2022-09-06T07:18:42.387Z,81.35
2022-09-06T07:20:29.790Z,80.83
2022-09-06T07:22:30.363Z,80.13
2022-09-06T07:24:38.351Z,79.89
2022-09-06T07:25:32.358Z,79.48
2022-09-06T07:26:35.426Z,79.69
2022-09-06T07:28:43.550Z,79.90
2022-09-06T07:29:39.335Z,79.85
2022-09-06T07:30:33.355Z,79.71
2022-09-06T07:32:42.342Z,79.02
2022-09-06T07:33:37.346Z,78.72
2022-09-06T07:34:32.331Z,79.33
2022-09-06T07:35:27.364Z,78.99
2022-09-06T07:36:11.480Z,78.98
2022-09-06T07:36:52.460Z,78.85
2022-09-06T07:37:32.312Z,78.93
2022-09-06T07:38:12.410Z,79.10
2022-09-06T07:38:57.334Z,78.86
2022-09-06T07:39:37.453Z,78.67
2022-09-06T07:40:18.335Z,78.61
2022-09-06T07:41:04.437Z,78.82
2022-09-06T07:41:44.356Z,78.57
2022-09-06T07:42:24.373Z,78.56
2022-09-06T07:43:07.318Z,78.37
2022-09-06T07:43:47.561Z,78.29
2022-09-06T07:44:27.302Z,78.60
2022-09-06T07:45:07.469Z,78.69
2022-09-06T07:45:48.329Z,78.35
2022-09-06T07:46:28.404Z,78.47
2022-09-06T07:48:12.374Z,78.17
2022-09-06T07:48:53.320Z,78.09
2022-09-06T07:49:34.835Z,77.88
2022-09-06T07:51:19.433Z,77.86
2022-09-06T07:51:59.438Z,77.59
2022-09-06T07:53:33.652Z,76.56
2022-09-06T07:54:36.628Z,75.90
2022-09-06T07:55:11.395Z,76.24
2022-09-06T07:55:58.308Z,75.97
2022-09-06T07:56:32.368Z,76.48
2022-09-06T07:57:19.306Z,76.23
2022-09-06T07:58:00.334Z,75.94
2022-09-06T07:58:54.339Z,76.35
2022-09-06T07:59:48.353Z,75.78
2022-09-06T08:00:42.377Z,75.79
2022-09-06T08:01:49.417Z,76.33
2022-09-06T08:02:43.297Z,76.49
2022-09-06T08:03:23.410Z,76.25
2022-09-06T08:04:13.877Z,76.30
2022-09-06T08:04:54.330Z,76.11
2022-09-06T08:09:23.976Z,75.98
2022-09-06T08:10:04.305Z,75.26
2022-09-06T08:10:44.392Z,75.30
2022-09-06T08:11:25.300Z,75.64
2022-09-06T08:12:07.423Z,75.53
2022-09-06T08:12:47.292Z,75.52
2022-09-06T08:13:34.322Z,75.34
2022-09-06T08:14:28.296Z,75.46
2022-09-06T08:15:23.289Z,75.12
2022-09-06T08:16:23.374Z,74.67
2022-09-06T08:17:17.297Z,74.37
2022-09-06T08:18:11.341Z,74.23
2022-09-06T08:19:01.322Z,73.83
2022-09-06T08:19:35.411Z,73.96
2022-09-06T08:20:23.280Z,73.69
2022-09-06T08:20:57.399Z,73.35
2022-09-06T08:21:45.307Z,73.02
2022-09-06T08:22:19.353Z,73.05
2022-09-06T08:23:08.270Z,72.72
2022-09-06T08:23:42.790Z,73.19
2022-09-06T08:24:23.329Z,73.11
2022-09-06T08:25:03.377Z,72.69
2022-09-06T08:25:44.310Z,73.46
2022-09-06T08:26:27.412Z,73.41
2022-09-06T08:27:08.304Z,73.24
2022-09-06T08:27:48.350Z,72.94
2022-09-06T08:28:29.003Z,72.50
2022-09-06T08:29:12.389Z,71.98
2022-09-06T08:29:52.321Z,71.92
2022-09-06T08:30:32.369Z,71.13
2022-09-06T08:31:22.414Z,71.02
2022-09-06T08:32:02.428Z,71.20
2022-09-06T08:32:43.284Z,71.63
2022-09-06T08:33:25.662Z,70.96
2022-09-06T08:34:07.276Z,71.38
2022-09-06T08:34:47.339Z,70.83
2022-09-06T08:35:27.293Z,71.21
2022-09-06T08:36:07.383Z,71.41
2022-09-06T08:36:48.270Z,71.27
2022-09-06T08:37:28.349Z,70.44
2022-09-06T08:38:08.277Z,70.94
2022-09-06T08:38:48.386Z,70.68
2022-09-06T08:39:28.301Z,70.06
2022-09-06T08:40:09.414Z,69.32
2022-09-06T08:40:49.294Z,69.14
2022-09-06T08:42:05.394Z,69.40
2022-09-06T08:42:46.274Z,69.82
2022-09-06T08:43:28.535Z,68.86
2022-09-06T08:45:15.360Z,68.55
2022-09-06T08:46:03.308Z,68.67
2022-09-06T08:46:52.407Z,68.37
2022-09-06T08:47:32.269Z,67.98
2022-09-06T08:48:12.331Z,67.75
2022-09-06T08:48:52.250Z,67.88
2022-09-06T08:49:36.315Z,67.86
2022-09-06T08:50:17.277Z,67.82
2022-09-06T08:51:40.321Z,68.40
2022-09-06T08:53:17.291Z,68.12
2022-09-06T08:54:47.269Z,67.92
2022-09-06T08:55:51.269Z,67.56
2022-09-06T08:56:54.371Z,67.49
2022-09-06T08:58:08.277Z,68.10
2022-09-06T08:59:19.281Z,67.10
2022-09-06T09:00:20.281Z,66.74
2022-09-06T09:01:23.268Z,66.81
2022-09-06T09:02:16.392Z,66.16
2022-09-06T09:03:01.328Z,67.10
2022-09-06T09:03:50.260Z,66.72
2022-09-06T09:04:28.321Z,66.79
2022-09-06T09:05:37.244Z,66.37
2022-09-06T09:06:14.317Z,66.44
2022-09-06T09:07:07.248Z,65.08
2022-09-06T09:08:03.295Z,64.66
2022-09-06T09:09:22.259Z,63.74
2022-09-06T09:10:56.316Z,63.90
2022-09-06T09:11:50.269Z,63.84
2022-09-06T09:12:46.266Z,64.61
2022-09-06T09:13:35.289Z,64.22
2022-09-06T09:14:28.349Z,64.41
2022-09-06T09:15:18.230Z,64.53
2022-09-06T09:15:59.357Z,64.00
2022-09-06T09:16:40.283Z,64.57
2022-09-06T09:17:28.328Z,63.63
2022-09-06T09:18:08.247Z,63.38
2022-09-06T09:18:59.296Z,63.50
2022-09-06T09:19:54.272Z,64.12
2022-09-06T09:20:48.257Z,63.12
2022-09-06T09:21:47.243Z,63.29
2022-09-06T09:22:41.269Z,63.36
2022-09-06T09:23:35.253Z,63.64
2022-09-06T09:24:23.273Z,63.31
2022-09-06T09:24:58.934Z,63.01
2022-09-06T09:25:48.264Z,63.33
2022-09-06T09:26:22.297Z,62.95
2022-09-06T09:27:20.249Z,63.22
2022-09-06T09:27:57.755Z,62.91
2022-09-06T09:28:45.231Z,62.71
2022-09-06T09:29:26.764Z,62.99
2022-09-06T09:31:27.307Z,61.81
2022-09-06T09:32:21.258Z,61.52
2022-09-06T09:33:15.253Z,61.02
2022-09-06T09:34:11.240Z,61.00
2022-09-06T09:35:05.218Z,60.84
2022-09-06T09:35:48.298Z,60.26
2022-09-06T09:36:28.313Z,60.82
2022-09-06T09:37:48.471Z,60.52
2022-09-06T09:38:52.941Z,61.29
2022-09-06T09:39:45.326Z,61.16
2022-09-06T09:40:31.365Z,61.03
2022-09-06T09:41:14.263Z,60.90
2022-09-06T09:41:57.298Z,61.03
2022-09-06T09:42:44.252Z,60.19
2022-09-06T09:43:40.346Z,60.93
2022-09-06T09:44:25.245Z,61.02
2022-09-06T09:45:06.316Z,61.24
2022-09-06T09:45:49.042Z,60.26
2022-09-06T09:46:29.329Z,60.46
2022-09-06T09:47:03.428Z,59.72
2022-09-06T09:47:50.208Z,60.79
2022-09-06T09:48:34.344Z,60.75
2022-09-06T09:49:34.249Z,59.75
2022-09-06T09:50:08.414Z,60.08
2022-09-06T09:50:56.215Z,60.14
2022-09-06T09:51:39.253Z,59.81
2022-09-06T09:52:45.414Z,59.61
2022-09-06T09:53:39.333Z,59.83
2022-09-06T09:54:45.376Z,60.11
2022-09-06T09:55:40.228Z,60.47
2022-09-06T09:56:56.306Z,59.95
2022-09-06T09:58:01.222Z,59.98
2022-09-06T09:58:55.210Z,60.15
2022-09-06T09:59:57.242Z,59.45
2022-09-06T10:00:54.230Z,59.91
2022-09-06T10:01:48.237Z,59.57
2022-09-06T10:02:40.251Z,59.46
2022-09-06T10:03:26.366Z,59.59
2022-09-06T10:05:20.268Z,58.65
2022-09-06T10:07:21.263Z,58.44
2022-09-06T10:08:03.216Z,58.80
2022-09-06T10:08:48.274Z,58.37
2022-09-06T10:09:44.214Z,58.40